createdAt,value
2023-09-02T00:00:17.193Z,98969.25
2023-09-02T00:02:43.962Z,98976.72
2023-09-02T00:05:10.704Z,98971.88
2023-09-02T00:07:37.429Z,98980.09
2023-09-02T00:10:05.778Z,98980.50
2023-09-02T00:12:32.458Z,98979.75
2023-09-02T00:14:59.162Z,98973.16
2023-09-02T00:17:25.880Z,98974.19
2023-09-02T00:19:52.823Z,98970.53
2023-09-02T00:22:19.460Z,98968.66
2023-09-02T00:24:46.072Z,98972.66
2023-09-02T00:27:13.093Z,98980.31
2023-09-02T00:29:39.754Z,98977.94
2023-09-02T00:32:06.638Z,98981.75
2023-09-02T00:34:33.894Z,98979.59
2023-09-02T00:37:00.537Z,98982.44
2023-09-02T00:39:27.472Z,98981.38
2023-09-02T00:41:58.417Z,98971.44
2023-09-02T00:44:25.090Z,98969.41
2023-09-02T00:46:52.949Z,98969.88
2023-09-02T00:49:19.945Z,98978.09
2023-09-02T00:51:46.575Z,98983.69
2023-09-02T00:54:13.784Z,98976.19
2023-09-02T00:56:41.754Z,98978.91
2023-09-02T00:59:08.576Z,98973.91
2023-09-02T01:01:36.351Z,98981.09
2023-09-02T01:04:06.787Z,98982.31
2023-09-02T01:06:35.467Z,98982.84
2023-09-02T01:09:04.945Z,98978.38
2023-09-02T01:11:34.295Z,98972.19
2023-09-02T01:14:03.025Z,98981.56
2023-09-02T01:16:30.695Z,98982.50
2023-09-02T01:18:58.690Z,98986.38
2023-09-02T01:21:56.228Z,98980.41
2023-09-02T01:25:00.841Z,98987.03
2023-09-02T01:27:35.231Z,98987.44
2023-09-02T01:30:22.380Z,98995.75
2023-09-02T01:32:54.250Z,99007.41
2023-09-02T01:35:35.299Z,99011.63
2023-09-02T01:38:04.773Z,99009.94
2023-09-02T01:40:33.633Z,99003.09
2023-09-02T01:43:01.970Z,99012.59
2023-09-02T01:45:35.734Z,99006.78
2023-09-02T01:48:04.496Z,99012.97
2023-09-02T01:50:34.735Z,99006.63
2023-09-02T01:53:02.343Z,99000.69
2023-09-02T01:55:29.064Z,99001.03
2023-09-02T01:58:00.290Z,99005.94
2023-09-02T02:00:27.694Z,99008.16
2023-09-02T02:02:55.670Z,99013.13
2023-09-02T02:05:38.417Z,99015.94
2023-09-02T02:08:18.172Z,99020.50
2023-09-02T02:10:46.711Z,99012.09
2023-09-02T02:13:14.081Z,99015.84
2023-09-02T02:15:40.712Z,99019.31
2023-09-02T02:18:07.372Z,99018.88
2023-09-02T02:20:50.754Z,99011.69
2023-09-02T02:23:17.806Z,99016.81
2023-09-02T02:25:44.645Z,99014.50
2023-09-02T02:28:11.256Z,99023.06
2023-09-02T02:30:37.928Z,99021.75
2023-09-02T02:33:05.246Z,99032.72
2023-09-02T02:35:34.954Z,99028.38
2023-09-02T02:38:01.598Z,99028.25
2023-09-02T02:40:28.794Z,99030.22
2023-09-02T02:42:55.445Z,99027.34
2023-09-02T02:45:22.307Z,99031.41
2023-09-02T02:47:48.959Z,99032.44
2023-09-02T02:50:15.895Z,99035.78
2023-09-02T02:52:42.542Z,99043.72
2023-09-02T02:55:09.360Z,99039.53
2023-09-02T02:57:36.012Z,99034.72
2023-09-02T03:00:03.510Z,99038.94
2023-09-02T03:02:30.240Z,99043.41
2023-09-02T03:04:56.950Z,99038.31
2023-09-02T03:07:23.570Z,99042.38
2023-09-02T03:09:50.254Z,99041.94
2023-09-02T03:12:19.235Z,99049.72
2023-09-02T03:14:47.868Z,99039.50
2023-09-02T03:17:15.459Z,99045.19
2023-09-02T03:19:45.489Z,99040.13
2023-09-02T03:22:12.158Z,99046.22
2023-09-02T03:24:38.829Z,99050.16
2023-09-02T03:27:05.725Z,99044.63
2023-09-02T03:29:32.388Z,99042.38
2023-09-02T03:31:59.022Z,99052.41
2023-09-02T03:34:25.658Z,99055.13
2023-09-02T03:36:52.325Z,99051.63
2023-09-02T03:39:18.949Z,99057.22
2023-09-02T03:41:46.476Z,99053.63
2023-09-02T03:44:13.109Z,99053.44
2023-09-02T03:46:39.719Z,99055.72
2023-09-02T03:49:06.358Z,99060.22
2023-09-02T03:51:32.989Z,99058.56
2023-09-02T03:53:59.693Z,99059.59
2023-09-02T03:56:26.343Z,99066.66
2023-09-02T03:58:54.773Z,99063.66
2023-09-02T04:01:21.513Z,99075.63
2023-09-02T04:03:48.226Z,99078.19
2023-09-02T04:06:14.944Z,99078.47
2023-09-02T04:08:41.633Z,99082.69
2023-09-02T04:11:08.358Z,99083.31
2023-09-02T04:13:35.235Z,99084.91
2023-09-02T04:16:02.116Z,99080.97
2023-09-02T04:18:28.900Z,99078.56
2023-09-02T04:20:56.045Z,99081.28
2023-09-02T04:23:23.245Z,99080.09
2023-09-02T04:25:54.987Z,99082.19
2023-09-02T04:28:21.850Z,99082.63
2023-09-02T04:30:49.263Z,99080.66
2023-09-02T04:33:17.821Z,99086.84
2023-09-02T04:35:48.972Z,99092.38
2023-09-02T04:38:18.314Z,99096.97
2023-09-02T04:40:45.849Z,99103.91
2023-09-02T04:43:14.733Z,99102.69
2023-09-02T04:45:42.719Z,99094.28
2023-09-02T04:48:10.997Z,99101.81
2023-09-02T04:50:38.887Z,99106.44
2023-09-02T04:53:06.199Z,99104.41
2023-09-02T04:55:32.918Z,99103.13
2023-09-02T04:57:59.583Z,99110.03
2023-09-02T05:00:28.110Z,99109.88
2023-09-02T05:02:55.864Z,99119.47
2023-09-02T05:05:24.301Z,99107.75
2023-09-02T05:07:51.435Z,99111.50
2023-09-02T05:10:18.688Z,99107.09
2023-09-02T05:12:45.330Z,99103.53
2023-09-02T05:15:12.024Z,99102.63
2023-09-02T05:17:39.042Z,99095.22
2023-09-02T05:20:07.437Z,99099.38
2023-09-02T05:22:36.851Z,99100.56
2023-09-02T05:25:05.349Z,99095.34
2023-09-02T05:27:32.391Z,99097.63
2023-09-02T05:29:59.229Z,99101.66
2023-09-02T05:32:25.996Z,99100.66
2023-09-02T05:34:52.687Z,99108.22
2023-09-02T05:37:19.282Z,99108.06
2023-09-02T05:39:45.944Z,99104.88
2023-09-02T05:42:12.579Z,99104.69
2023-09-02T05:44:39.257Z,99107.22
2023-09-02T05:47:05.966Z,99109.31
2023-09-02T05:49:37.758Z,99103.28
2023-09-02T05:52:07.374Z,99112.63
2023-09-02T05:54:34.408Z,99117.81
2023-09-02T05:57:01.338Z,99116.81
2023-09-02T05:59:28.039Z,99116.97
2023-09-02T06:01:57.679Z,99128.94
2023-09-02T06:04:24.473Z,99128.78
2023-09-02T06:06:51.407Z,99130.66
2023-09-02T06:09:18.259Z,99128.81
2023-09-02T06:11:44.966Z,99127.75
2023-09-02T06:14:11.800Z,99137.22
2023-09-02T06:16:38.965Z,99138.91
2023-09-02T06:19:05.634Z,99145.22
2023-09-02T06:21:32.334Z,99144.69
2023-09-02T06:23:58.995Z,99138.47
2023-09-02T06:26:26.653Z,99126.16
2023-09-02T06:28:53.567Z,99130.50
2023-09-02T06:31:27.849Z,99131.25
2023-09-02T06:33:56.034Z,99131.25
2023-09-02T06:36:22.765Z,99143.22
2023-09-02T06:38:51.385Z,99136.75
2023-09-02T06:41:18.385Z,99151.16
2023-09-02T06:43:45.375Z,99151.53
2023-09-02T06:46:16.158Z,99147.41
2023-09-02T06:48:44.941Z,99146.31
2023-09-02T06:51:11.737Z,99147.19
2023-09-02T06:53:39.167Z,99153.53
2023-09-02T06:56:10.462Z,99154.06
2023-09-02T06:58:40.335Z,99161.72
2023-09-02T07:01:07.003Z,99156.88
2023-09-02T07:03:33.812Z,99163.59
2023-09-02T07:06:08.050Z,99166.78
2023-09-02T07:08:35.285Z,99174.47
2023-09-02T07:11:01.971Z,99175.00
2023-09-02T07:13:28.687Z,99180.22
2023-09-02T07:16:03.287Z,99176.50
2023-09-02T07:18:30.366Z,99183.34
2023-09-02T07:21:05.002Z,99180.50
2023-09-02T07:23:33.595Z,99186.50
2023-09-02T07:26:02.319Z,99186.09
2023-09-02T07:28:29.846Z,99187.88
2023-09-02T07:31:02.000Z,99188.78
2023-09-02T07:33:29.514Z,99202.69
2023-09-02T07:35:58.160Z,99201.50
2023-09-02T07:38:25.358Z,99206.81
2023-09-02T07:40:52.104Z,99202.91
2023-09-02T07:43:18.911Z,99216.78
2023-09-02T07:45:45.760Z,99218.75
2023-09-02T07:48:12.561Z,99217.47
2023-09-02T07:50:39.242Z,99223.31
2023-09-02T07:53:05.858Z,99226.44
2023-09-02T07:55:32.493Z,99219.94
2023-09-02T07:58:01.052Z,99229.75
2023-09-02T08:00:29.279Z,99239.44
2023-09-02T08:02:56.188Z,99245.00
2023-09-02T08:05:23.473Z,99244.84
2023-09-02T08:07:50.262Z,99244.31
2023-09-02T08:10:17.697Z,99250.28
2023-09-02T08:12:44.532Z,99252.63
2023-09-02T08:15:14.384Z,99256.44
2023-09-02T08:17:44.787Z,99255.78
2023-09-02T08:20:12.260Z,99258.28
2023-09-02T08:22:40.464Z,99251.97
2023-09-02T08:25:07.999Z,99257.31
2023-09-02T08:27:34.939Z,99255.53
2023-09-02T08:30:03.086Z,99266.84
2023-09-02T08:32:31.286Z,99270.47
2023-09-02T08:34:58.243Z,99270.97
2023-09-02T08:37:25.118Z,99274.22
2023-09-02T08:39:54.584Z,99275.09
2023-09-02T08:42:22.276Z,99272.59
2023-09-02T08:44:49.795Z,99270.41
2023-09-02T08:47:18.427Z,99272.50
2023-09-02T08:49:45.440Z,99270.94
2023-09-02T08:52:15.614Z,99279.88
2023-09-02T08:54:43.816Z,99274.50
2023-09-02T08:57:12.267Z,99269.34
2023-09-02T08:59:39.749Z,99266.19
2023-09-02T09:02:07.156Z,99268.09
2023-09-02T09:04:34.901Z,99275.81
2023-09-02T09:07:06.368Z,99277.03
2023-09-02T09:09:38.080Z,99270.25
2023-09-02T09:12:07.433Z,99277.09
2023-09-02T09:14:38.037Z,99280.16
2023-09-02T09:17:05.513Z,99287.19
2023-09-02T09:19:33.866Z,99297.16
2023-09-02T09:22:03.072Z,99288.59
2023-09-02T09:24:30.142Z,99288.38
2023-09-02T09:27:00.222Z,99283.41
2023-09-02T09:29:27.010Z,99287.47
2023-09-02T09:32:15.239Z,99290.28
2023-09-02T09:34:44.028Z,99286.34
2023-09-02T09:37:11.529Z,99295.25
2023-09-02T09:39:49.312Z,99296.25
2023-09-02T09:42:17.409Z,99296.31
2023-09-02T09:44:58.634Z,99300.78
2023-09-02T09:47:27.546Z,99293.41
2023-09-02T09:49:54.534Z,99291.53
2023-09-02T09:52:22.323Z,99293.19
2023-09-02T09:54:51.883Z,99289.59
2023-09-02T09:57:38.470Z,99291.56
2023-09-02T10:00:07.551Z,99290.88
2023-09-02T10:02:35.216Z,99297.97
2023-09-02T10:05:03.362Z,99290.19
2023-09-02T10:07:32.975Z,99292.88
2023-09-02T10:10:03.582Z,99297.84
2023-09-02T10:12:39.300Z,99299.53
2023-09-02T10:15:07.946Z,99298.38
2023-09-02T10:17:36.977Z,99298.19
2023-09-02T10:20:04.518Z,99303.47
2023-09-02T10:22:35.198Z,99293.81
2023-09-02T10:25:25.578Z,99302.72
2023-09-02T10:28:05.128Z,99307.56
2023-09-02T10:30:47.498Z,99304.97
2023-09-02T10:34:02.336Z,99306.81
2023-09-02T10:36:33.127Z,99313.16
2023-09-02T10:39:04.223Z,99300.78
2023-09-02T10:41:34.131Z,99298.09
2023-09-02T10:44:02.078Z,99304.34
2023-09-02T10:46:29.313Z,99295.44
2023-09-02T10:48:56.828Z,99283.94
2023-09-02T10:51:24.040Z,99281.72
2023-09-02T10:53:54.021Z,99287.69
2023-09-02T10:56:34.108Z,99295.56
2023-09-02T10:59:06.798Z,99296.03
2023-09-02T11:01:48.054Z,99296.94
2023-09-02T11:04:44.060Z,99289.34
2023-09-02T11:07:25.283Z,99295.50
2023-09-02T11:10:02.315Z,99287.50
2023-09-02T11:12:29.192Z,99286.91
2023-09-02T11:15:08.173Z,99282.28
2023-09-02T11:17:47.518Z,99282.53
2023-09-02T11:20:26.633Z,99289.38
2023-09-02T11:23:05.534Z,99301.63
2023-09-02T11:25:39.731Z,99302.72
2023-09-02T11:28:26.140Z,99296.09
2023-09-02T11:31:29.516Z,99306.22
2023-09-02T11:33:56.674Z,99302.16
2023-09-02T11:36:25.619Z,99303.19
2023-09-02T11:38:56.035Z,99301.34
2023-09-02T11:41:26.721Z,99289.38
2023-09-02T11:43:54.531Z,99298.16
2023-09-02T11:46:21.298Z,99296.13
2023-09-02T11:48:48.065Z,99301.19
2023-09-02T11:51:14.794Z,99298.78
2023-09-02T11:53:44.318Z,99300.44
2023-09-02T11:56:13.350Z,99287.09
2023-09-02T11:58:41.121Z,99288.16
2023-09-02T12:01:07.864Z,99292.88
2023-09-02T12:03:34.894Z,99289.41
2023-09-02T12:06:03.397Z,99288.66
2023-09-02T12:08:33.560Z,99301.13
2023-09-02T12:11:05.064Z,99292.03
2023-09-02T12:13:33.007Z,99285.25
2023-09-02T12:16:00.053Z,99286.75
2023-09-02T12:18:27.132Z,99293.56
2023-09-02T12:20:54.287Z,99291.16
2023-09-02T12:23:21.377Z,99288.56
2023-09-02T12:26:10.059Z,99284.22
2023-09-02T12:28:37.292Z,99285.88
2023-09-02T12:31:07.778Z,99294.28
2023-09-02T12:33:38.519Z,99288.56
2023-09-02T12:36:06.270Z,99292.84
2023-09-02T12:38:48.918Z,99291.00
2023-09-02T12:41:15.534Z,99303.78
2023-09-02T12:43:42.248Z,99308.16
2023-09-02T12:46:09.040Z,99300.97
2023-09-02T12:48:36.020Z,99302.44
2023-09-02T12:51:02.672Z,99295.31
2023-09-02T12:53:29.310Z,99299.72
2023-09-02T12:55:56.273Z,99300.16
2023-09-02T12:58:22.868Z,99297.84
2023-09-02T13:00:49.485Z,99295.19
2023-09-02T13:03:16.319Z,99296.59
2023-09-02T13:05:42.949Z,99297.06
2023-09-02T13:08:12.347Z,99292.16
2023-09-02T13:10:46.422Z,99297.75
2023-09-02T13:13:13.163Z,99294.66
2023-09-02T13:15:39.869Z,99297.34
2023-09-02T13:18:06.822Z,99308.47
2023-09-02T13:20:36.887Z,99295.34
2023-09-02T13:23:05.477Z,99295.81
2023-09-02T13:25:32.173Z,99296.25
2023-09-02T13:28:01.031Z,99297.41
2023-09-02T13:30:27.626Z,99297.97
2023-09-02T13:32:56.535Z,99302.31
2023-09-02T13:35:26.527Z,99295.84
2023-09-02T13:37:53.741Z,99302.66
2023-09-02T13:40:38.604Z,99307.06
2023-09-02T13:43:21.595Z,99309.13
2023-09-02T13:45:48.904Z,99308.16
2023-09-02T13:48:16.460Z,99304.16
2023-09-02T13:50:44.099Z,99308.56
2023-09-02T13:53:11.353Z,99321.06
2023-09-02T13:55:41.745Z,99318.31
2023-09-02T13:58:11.840Z,99318.81
2023-09-02T14:00:42.085Z,99319.03
2023-09-02T14:03:20.693Z,99327.66
2023-09-02T14:05:50.617Z,99331.78
2023-09-02T14:08:34.855Z,99334.88
2023-09-02T14:11:02.524Z,99327.25
2023-09-02T14:13:41.457Z,99334.31
2023-09-02T14:16:09.153Z,99322.03
2023-09-02T14:18:36.194Z,99329.97
2023-09-02T14:21:03.066Z,99335.63
2023-09-02T14:23:29.794Z,99332.78
2023-09-02T14:25:56.418Z,99333.66
2023-09-02T14:28:23.162Z,99331.53
2023-09-02T14:30:50.029Z,99323.47
2023-09-02T14:33:16.748Z,99327.94
2023-09-02T14:35:43.539Z,99323.84
2023-09-02T14:38:10.152Z,99312.25
2023-09-02T14:40:36.842Z,99314.75
2023-09-02T14:43:04.895Z,99319.31
2023-09-02T14:45:33.387Z,99315.00
2023-09-02T14:48:00.728Z,99323.38
2023-09-02T14:50:30.755Z,99309.66
2023-09-02T14:52:57.520Z,99317.28
2023-09-02T14:55:24.234Z,99318.97
2023-09-02T14:57:55.565Z,99306.13
2023-09-02T15:00:22.379Z,99309.03
2023-09-02T15:02:49.290Z,99316.63
2023-09-02T15:05:23.521Z,99300.91
2023-09-02T15:07:57.515Z,99300.44
2023-09-02T15:10:27.253Z,99302.84
2023-09-02T15:12:55.248Z,99301.03
2023-09-02T15:15:25.610Z,99302.81
2023-09-02T15:17:52.679Z,99311.25
2023-09-02T15:20:27.695Z,99303.25
2023-09-02T15:22:56.701Z,99302.81
2023-09-02T15:25:27.449Z,99304.19
2023-09-02T15:27:55.948Z,99317.09
2023-09-02T15:30:30.841Z,99312.69
2023-09-02T15:32:59.592Z,99319.72
2023-09-02T15:35:35.170Z,99316.50
2023-09-02T15:38:02.059Z,99321.66
2023-09-02T15:40:31.611Z,99322.66
2023-09-02T15:43:03.795Z,99321.41
2023-09-02T15:45:31.126Z,99322.88
2023-09-02T15:47:58.076Z,99316.84
2023-09-02T15:50:25.940Z,99323.06
2023-09-02T15:52:53.854Z,99325.63
2023-09-02T15:55:21.762Z,99325.06
2023-09-02T15:57:48.598Z,99321.69
2023-09-02T16:00:15.490Z,99317.94
2023-09-02T16:02:42.627Z,99323.75
2023-09-02T16:05:09.582Z,99317.81
2023-09-02T16:07:36.246Z,99316.84
2023-09-02T16:10:05.966Z,99313.38
2023-09-02T16:12:32.624Z,99320.16
2023-09-02T16:14:59.336Z,99322.91
2023-09-02T16:17:31.381Z,99318.22
2023-09-02T16:19:58.096Z,99306.13
2023-09-02T16:22:24.829Z,99308.34
2023-09-02T16:24:53.257Z,99302.66
2023-09-02T16:27:20.037Z,99306.03
2023-09-02T16:29:48.415Z,99318.09
2023-09-02T16:32:15.558Z,99312.94
2023-09-02T16:34:46.152Z,99310.81
2023-09-02T16:37:16.318Z,99300.69
2023-09-02T16:39:43.709Z,99298.88
2023-09-02T16:42:10.751Z,99307.50
2023-09-02T16:44:37.432Z,99299.13
2023-09-02T16:47:05.041Z,99301.19
2023-09-02T16:49:36.862Z,99295.88
2023-09-02T16:52:09.204Z,99297.97
2023-09-02T16:54:37.942Z,99302.66
2023-09-02T16:57:05.144Z,99297.16
2023-09-02T16:59:31.891Z,99300.09
2023-09-02T17:01:59.851Z,99307.09
2023-09-02T17:04:26.720Z,99307.47
2023-09-02T17:06:57.569Z,99311.41
2023-09-02T17:09:26.882Z,99308.25
2023-09-02T17:11:53.993Z,99309.13
2023-09-02T17:14:20.780Z,99309.00
2023-09-02T17:16:49.095Z,99311.78
2023-09-02T17:19:18.714Z,99306.91
2023-09-02T17:21:46.886Z,99310.09
2023-09-02T17:24:19.599Z,99313.50
2023-09-02T17:26:46.262Z,99309.88
2023-09-02T17:29:16.580Z,99315.38
2023-09-02T17:31:43.349Z,99319.38
2023-09-02T17:34:10.304Z,99323.28
2023-09-02T17:36:37.075Z,99313.59
2023-09-02T17:39:04.263Z,99311.38
2023-09-02T17:41:30.996Z,99317.25
2023-09-02T17:43:57.668Z,99320.44
2023-09-02T17:46:24.467Z,99314.41
2023-09-02T17:48:51.282Z,99318.41
2023-09-02T17:51:18.002Z,99324.75
2023-09-02T17:53:44.634Z,99330.47
2023-09-02T17:56:11.292Z,99334.22
2023-09-02T17:58:37.976Z,99338.22
2023-09-02T18:01:04.673Z,99333.22
2023-09-02T18:03:31.536Z,99332.66
2023-09-02T18:05:58.285Z,99318.81
2023-09-02T18:08:31.637Z,99322.44
2023-09-02T18:11:08.684Z,99339.09
2023-09-02T18:13:36.110Z,99337.16
2023-09-02T18:16:03.089Z,99341.59
2023-09-02T18:18:29.928Z,99354.34
2023-09-02T18:20:56.986Z,99364.47
2023-09-02T18:23:23.636Z,99354.41
2023-09-02T18:25:50.319Z,99362.81
2023-09-02T18:28:17.134Z,99358.84
2023-09-02T18:30:43.900Z,99357.94
2023-09-02T18:33:10.618Z,99369.56
2023-09-02T18:35:37.236Z,99377.09
2023-09-02T18:38:04.905Z,99372.34
2023-09-02T18:40:31.606Z,99374.38
2023-09-02T18:42:58.258Z,99383.03
2023-09-02T18:45:24.850Z,99385.06
2023-09-02T18:47:53.834Z,99392.09
2023-09-02T18:50:20.516Z,99392.19
2023-09-02T18:52:47.129Z,99397.63
2023-09-02T18:55:13.817Z,99395.91
2023-09-02T18:57:40.426Z,99398.25
2023-09-02T19:00:07.819Z,99405.72
2023-09-02T19:02:35.236Z,99405.84
2023-09-02T19:05:01.946Z,99410.81
2023-09-02T19:07:28.615Z,99420.47
2023-09-02T19:09:55.248Z,99429.28
2023-09-02T19:12:21.861Z,99428.50
2023-09-02T19:14:48.518Z,99425.69
2023-09-02T19:17:15.160Z,99428.16
2023-09-02T19:19:41.914Z,99425.63
2023-09-02T19:22:08.732Z,99433.75
2023-09-02T19:24:35.533Z,99424.78
2023-09-02T19:27:03.667Z,99429.19
2023-09-02T19:29:30.303Z,99432.19
2023-09-02T19:31:56.927Z,99432.88
2023-09-02T19:34:24.000Z,99433.59
2023-09-02T19:36:50.763Z,99428.84
2023-09-02T19:39:19.484Z,99425.69
2023-09-02T19:41:49.379Z,99437.81
2023-09-02T19:44:16.247Z,99440.81
2023-09-02T19:46:44.204Z,99439.44
2023-09-02T19:49:12.961Z,99444.84
2023-09-02T19:51:41.630Z,99456.03
2023-09-02T19:54:09.734Z,99457.16
2023-09-02T19:56:36.426Z,99465.97
2023-09-02T19:59:04.627Z,99463.72
2023-09-02T20:01:32.757Z,99461.00
2023-09-02T20:03:59.890Z,99467.22
2023-09-02T20:06:27.864Z,99463.22
2023-09-02T20:08:54.539Z,99476.47
2023-09-02T20:11:21.318Z,99475.84
2023-09-02T20:13:47.929Z,99481.56
2023-09-02T20:16:14.681Z,99484.94
2023-09-02T20:18:42.948Z,99490.56
2023-09-02T20:21:12.338Z,99482.78
2023-09-02T20:23:40.200Z,99491.97
2023-09-02T20:26:13.319Z,99490.06
2023-09-02T20:28:40.911Z,99495.28
2023-09-02T20:31:14.087Z,99498.53
2023-09-02T20:33:40.740Z,99489.84
2023-09-02T20:36:16.458Z,99488.06
2023-09-02T20:38:49.793Z,99493.81
2023-09-02T20:41:18.644Z,99502.34
2023-09-02T20:43:46.257Z,99496.34
2023-09-02T20:46:14.455Z,99505.28
2023-09-02T20:48:42.602Z,99499.56
2023-09-02T20:51:11.363Z,99507.94
2023-09-02T20:53:38.444Z,99500.81
2023-09-02T20:56:05.359Z,99497.56
2023-09-02T20:58:32.144Z,99496.31
2023-09-02T21:00:59.158Z,99503.94
2023-09-02T21:03:25.878Z,99516.31
2023-09-02T21:05:52.551Z,99509.31
2023-09-02T21:08:19.392Z,99505.31
2023-09-02T21:10:46.954Z,99501.06
2023-09-02T21:13:14.038Z,99506.34
2023-09-02T21:15:41.157Z,99507.81
2023-09-02T21:18:08.648Z,99504.06
2023-09-02T21:20:42.328Z,99507.22
2023-09-02T21:23:08.989Z,99510.56
2023-09-02T21:25:35.632Z,99508.81
2023-09-02T21:28:02.277Z,99511.78
2023-09-02T21:30:28.974Z,99515.06
2023-09-02T21:32:55.768Z,99512.56
2023-09-02T21:35:22.437Z,99510.94
2023-09-02T21:37:50.739Z,99510.94
2023-09-02T21:40:17.409Z,99519.78
2023-09-02T21:42:44.123Z,99519.69
2023-09-02T21:45:11.525Z,99524.75
2023-09-02T21:47:38.228Z,99526.47
2023-09-02T21:50:05.375Z,99531.97
2023-09-02T21:52:32.405Z,99533.25
2023-09-02T21:54:59.032Z,99523.53
2023-09-02T21:57:25.632Z,99519.28
2023-09-02T21:59:52.566Z,99520.03
2023-09-02T22:02:19.651Z,99516.03
2023-09-02T22:04:46.277Z,99512.78
2023-09-02T22:07:13.482Z,99514.28
2023-09-02T22:09:40.177Z,99523.78
2023-09-02T22:12:07.243Z,99519.88
2023-09-02T22:14:33.853Z,99525.22
2023-09-02T22:17:01.164Z,99522.44
2023-09-02T22:19:27.823Z,99516.84
2023-09-02T22:21:54.419Z,99526.34
2023-09-02T22:24:21.601Z,99532.13
2023-09-02T22:26:48.386Z,99528.34
2023-09-02T22:29:15.007Z,99529.22
2023-09-02T22:31:41.713Z,99538.59
2023-09-02T22:34:08.416Z,99548.19
2023-09-02T22:36:35.032Z,99537.94
2023-09-02T22:39:01.663Z,99546.41
2023-09-02T22:41:28.289Z,99542.28
2023-09-02T22:43:54.917Z,99538.81
2023-09-02T22:46:21.595Z,99533.91
2023-09-02T22:48:49.954Z,99540.06
2023-09-02T22:51:16.642Z,99546.41
2023-09-02T22:53:43.736Z,99546.69
2023-09-02T22:56:16.006Z,99554.66
2023-09-02T22:58:43.074Z,99552.13
2023-09-02T23:01:12.972Z,99564.03
2023-09-02T23:03:42.754Z,99561.53
2023-09-02T23:06:10.185Z,99566.00
2023-09-02T23:08:38.388Z,99561.28
2023-09-02T23:11:05.036Z,99563.28
2023-09-02T23:13:31.712Z,99569.09
2023-09-02T23:16:05.958Z,99566.97
2023-09-02T23:18:33.775Z,99569.28
2023-09-02T23:21:19.081Z,99574.69
2023-09-02T23:23:45.880Z,99571.88
2023-09-02T23:26:12.514Z,99578.53
2023-09-02T23:28:40.377Z,99575.56
2023-09-02T23:31:07.648Z,99573.81
2023-09-02T23:33:34.620Z,99574.50
2023-09-02T23:36:03.999Z,99580.22
2023-09-02T23:38:31.305Z,99576.28
2023-09-02T23:40:57.947Z,99570.59
2023-09-02T23:43:24.810Z,99573.47
2023-09-02T23:45:53.541Z,99577.41
2023-09-02T23:48:20.951Z,99586.91
2023-09-02T23:50:50.470Z,99586.41
2023-09-02T23:53:18.363Z,99583.78
2023-09-02T23:55:47.291Z,99583.66
2023-09-02T23:58:13.999Z,99585.91
